Aérodrome :
LOGIN :

S'inscrire | Disclaimer

   EN    FR    IT 

 










Légende :    VFR   VFR Marginal   IFR   IFR Intensif   IFR Très Intensif
Visi : 
Plafond : 
>= 8 km
>= 3000ft
5 à 8 km
1000 à 3000 ft
1500m à 5 km
500 à 1000 ft
800 à 1500m
200 à 500 ft
< 800m
< 200 ft
Symboles :   Orages  Brouillard  Fortes neiges  Fortes précipitations  Vent > 20 kt
SIGMETs :   Divers  Orages  Givrage  Turbulence  Onde Orograph.  Cendres Volcan.






- Altitude de l'aérodrome : -13 ft
- Code IATA : LEY


EHLE - Lelystad

DERNIER METAR :
  • 221025Z AUTO 01009KT 320V040 9999 FEW026 SCT036 BKN040 17/10 Q1017 NOSIG

METARs EXPIRÉS :
  • 220955Z AUTO 02008KT 340V060 9999 BKN028 BKN035 17/11 Q1017 NOSIG
  • 220925Z AUTO 02009KT 350V050 9999 SCT034 BKN039 16/10 Q1017 NOSIG
  • 220855Z AUTO 02009KT 9999 BKN027 OVC030 15/10 Q1017 NOSIG
  • 220825Z AUTO 03010KT 360V070 9999 NSC 15/09 Q1017 NOSIG
  • 220755Z AUTO 02011KT 340V060 9999 NSC 15/09 Q1017 NOSIG

TAF TAF EHLE
Valide du 22 à 06h jusqu'au 23 à 12h UTC


220451Z 2206/2312 01010KT 9999 FEW025
BECMG 2219/2222 01005KT



MET'MAP, la Météo Aéronautique d'un coup d'oeil ! - Copyright ORBIFLY Décembre 2007 - Disclaimer

ORBIFLY MET'MAP TEAM :

Programmation & Développement : Alexandra Zaïnal
Sur une idée originale de : Baudouin d'Aumeries
Assistance à la programmation : Marc-Olivier Méhu
Soutien technique & logistique : Manuel Goepfert

Contact : metmap@orbifly.com




SOURCES & CREDITS :

   NOAA